Time;durP1;ratioP1;P1;durP2;ratioP2;P2;SDS_P1;SDS_P2;PMS_P1;PMS_P2;Temp;Humidity;BMP_temperature;BMP_pressure;BME280_temperature;BME280_humidity;BME280_pressure;Samples;Min_cycle;Max_cycle;Signal;HPM_P1;HPM_P2
2023/01/10 00:01:15;;;;;;;24.40;4.25;;;;;;;;;;5003171;28;20405;-72
2023/01/10 00:03:41;;;;;;;15.10;4.10;;;;;;;;;;5006318;28;20081;-72
2023/01/10 00:06:07;;;;;;;17.98;4.32;;;;;;;;;;5005825;28;20076;-72
2023/01/10 00:08:33;;;;;;;15.02;3.78;;;;;;;;;;5005313;28;20126;-72
2023/01/10 00:13:22;;;;;;;15.75;4.18;;;;;;;;;;5001373;28;20042;-72
2023/01/10 00:13:45;;;;;;;16.38;4.20;;;;;;;;;;5010806;28;20401;-72
2023/01/10 00:16:11;;;;;;;14.98;4.05;;;;;;;;;;5001362;28;20042;-72
2023/01/10 00:18:37;;;;;;;14.38;4.22;;;;;;;;;;5008077;28;20038;-72
2023/01/10 00:21:05;;;;;;;18.80;3.95;;;;;;;;;;5005037;28;20045;-72
2023/01/10 00:23:31;;;;;;;13.10;3.60;;;;;;;;;;5006794;28;20509;-72
2023/01/10 00:25:57;;;;;;;21.88;4.78;;;;;;;;;;5005684;28;20038;-72
2023/01/10 00:28:23;;;;;;;14.73;3.72;;;;;;;;;;5007616;28;20058;-72
2023/01/10 00:30:54;;;;;;;10.95;3.42;;;;;;;;;;4999880;28;20055;-72
2023/01/10 00:33:20;;;;;;;11.43;3.67;;;;;;;;;;5008100;28;20049;-72
2023/01/10 00:35:46;;;;;;;9.43;3.00;;;;;;;;;;5005930;28;20050;-72
2023/01/10 00:38:13;;;;;;;7.25;2.63;;;;;;;;;;5007774;28;20053;-72
2023/01/10 00:40:40;;;;;;;10.20;2.67;;;;;;;;;;5007500;28;20045;-72
2023/01/10 00:45:50;;;;;;;10.50;3.85;;;;;;;;;;5004389;28;20054;-72
2023/01/10 00:48:16;;;;;;;15.55;3.78;;;;;;;;;;4997459;28;20153;-73
2023/01/10 00:50:43;;;;;;;21.63;3.80;;;;;;;;;;5006146;28;20196;-72
2023/01/10 00:53:09;;;;;;;18.13;4.03;;;;;;;;;;5004402;28;20127;-72
2023/01/10 00:55:35;;;;;;;16.90;4.50;;;;;;;;;;5006228;28;20125;-72
2023/01/10 00:58:01;;;;;;;16.45;4.10;;;;;;;;;;5005640;28;20564;-72
2023/01/10 01:00:27;;;;;;;14.45;3.88;;;;;;;;;;5007781;28;20105;-72
2023/01/10 01:02:54;;;;;;;15.20;4.25;;;;;;;;;;5003530;28;20152;-72
2023/01/10 01:05:20;;;;;;;16.23;5.50;;;;;;;;;;5034231;28;20049;-72
2023/01/10 01:07:50;;;;;;;16.48;4.20;;;;;;;;;;5007078;28;20501;-72
2023/01/10 01:10:25;;;;;;;21.98;4.60;;;;;;;;;;5004542;28;20457;-72
2023/01/10 01:12:52;;;;;;;17.00;4.25;;;;;;;;;;5013863;28;20054;-72
2023/01/10 01:15:18;;;;;;;18.13;4.43;;;;;;;;;;5003574;28;20088;-72
2023/01/10 01:17:44;;;;;;;16.50;4.72;;;;;;;;;;5004747;28;20045;-72
2023/01/10 01:20:10;;;;;;;20.63;4.30;;;;;;;;;;5002662;28;20149;-72
2023/01/10 01:22:36;;;;;;;19.95;4.28;;;;;;;;;;4999580;28;20050;-72
2023/01/10 01:25:03;;;;;;;14.75;3.95;;;;;;;;;;5009297;28;20049;-72
2023/01/10 01:27:30;;;;;;;21.98;4.55;;;;;;;;;;5000780;28;20100;-72
2023/01/10 01:29:56;;;;;;;15.90;4.43;;;;;;;;;;5001106;28;20081;-72
2023/01/10 01:32:23;;;;;;;12.80;3.25;;;;;;;;;;5002328;28;20046;-72
2023/01/10 01:34:49;;;;;;;15.82;5.00;;;;;;;;;;5007555;28;20042;-72
2023/01/10 01:37:18;;;;;;;18.52;4.30;;;;;;;;;;5004496;28;20050;-72
2023/01/10 01:39:45;;;;;;;15.77;4.35;;;;;;;;;;4999831;28;20046;-72
2023/01/10 01:42:21;;;;;;;14.88;3.97;;;;;;;;;;5004024;28;20046;-72
2023/01/10 01:45:07;;;;;;;11.07;2.97;;;;;;;;;;5003771;28;20073;-72
2023/01/10 01:47:40;;;;;;;12.45;3.35;;;;;;;;;;5000893;28;20217;-72
2023/01/10 01:50:13;;;;;;;14.68;3.92;;;;;;;;;;5006779;28;20481;-72
2023/01/10 01:52:39;;;;;;;15.68;4.18;;;;;;;;;;5001506;28;20036;-72
2023/01/10 01:55:06;;;;;;;21.05;4.93;;;;;;;;;;5006976;28;20049;-72
2023/01/10 01:57:32;;;;;;;17.52;4.75;;;;;;;;;;5002190;28;20042;-72
2023/01/10 02:00:00;;;;;;;23.48;5.63;;;;;;;;;;5003008;28;20042;-72
2023/01/10 02:02:31;;;;;;;19.00;4.45;;;;;;;;;;5000262;28;20060;-72
2023/01/10 02:05:02;;;;;;;18.73;4.70;;;;;;;;;;5002187;28;20042;-72
2023/01/10 02:07:30;;;;;;;22.95;5.00;;;;;;;;;;5004779;28;20548;-72
2023/01/10 02:09:59;;;;;;;23.55;5.70;;;;;;;;;;5005020;28;20432;-72
2023/01/10 02:12:26;;;;;;;22.05;5.93;;;;;;;;;;5004267;28;20252;-72
2023/01/10 02:14:53;;;;;;;17.88;5.18;;;;;;;;;;5009929;28;20507;-72
2023/01/10 02:17:19;;;;;;;22.10;4.97;;;;;;;;;;5001167;28;20061;-72
2023/01/10 02:20:02;;;;;;;22.52;6.05;;;;;;;;;;5004008;28;20042;-72
2023/01/10 02:22:33;;;;;;;22.27;5.38;;;;;;;;;;5002534;28;20054;-72
2023/01/10 02:25:00;;;;;;;22.10;5.88;;;;;;;;;;5003550;28;20161;-72
2023/01/10 02:27:27;;;;;;;19.35;6.07;;;;;;;;;;5001429;28;20156;-72
2023/01/10 02:30:01;;;;;;;17.33;5.10;;;;;;;;;;5010111;28;20042;-72
2023/01/10 02:32:48;;;;;;;18.70;4.28;;;;;;;;;;5011715;28;20077;-72
2023/01/10 02:35:28;;;;;;;27.40;5.25;;;;;;;;;;4985537;28;20508;-72
2023/01/10 02:38:11;;;;;;;27.77;5.07;;;;;;;;;;4997121;28;20156;-72
2023/01/10 02:40:37;;;;;;;23.38;5.78;;;;;;;;;;5007997;28;20057;-72
2023/01/10 02:43:27;;;;;;;28.48;4.88;;;;;;;;;;5007170;28;20514;-72
2023/01/10 02:45:59;;;;;;;17.58;5.32;;;;;;;;;;4996880;28;20058;-72
2023/01/10 02:48:25;;;;;;;20.77;5.53;;;;;;;;;;5004331;28;20411;-72
2023/01/10 02:51:01;;;;;;;22.88;5.38;;;;;;;;;;5000775;28;20048;-72
2023/01/10 02:53:36;;;;;;;17.27;5.25;;;;;;;;;;5003015;28;20048;-72
2023/01/10 02:56:05;;;;;;;22.70;5.10;;;;;;;;;;5001867;28;20107;-73
2023/01/10 02:58:34;;;;;;;19.33;5.03;;;;;;;;;;5007638;28;20085;-72
2023/01/10 03:01:06;;;;;;;23.48;5.70;;;;;;;;;;5012248;28;20046;-72
2023/01/10 03:03:46;;;;;;;22.50;5.32;;;;;;;;;;5006206;28;20244;-72
2023/01/10 03:06:12;;;;;;;22.13;5.78;;;;;;;;;;5012229;28;20042;-73
2023/01/10 03:08:42;;;;;;;16.27;4.63;;;;;;;;;;5004788;28;20065;-72
2023/01/10 03:11:09;;;;;;;23.40;5.45;;;;;;;;;;5013581;28;20382;-72
2023/01/10 03:13:35;;;;;;;15.88;5.30;;;;;;;;;;5007645;28;20041;-72
2023/01/10 03:16:02;;;;;;;20.58;5.25;;;;;;;;;;5009747;28;20049;-72
2023/01/10 03:18:32;;;;;;;22.23;5.47;;;;;;;;;;5008195;28;20054;-72
2023/01/10 03:20:59;;;;;;;20.92;5.72;;;;;;;;;;5011028;28;20046;-72
2023/01/10 03:23:25;;;;;;;24.35;5.03;;;;;;;;;;5010776;28;20400;-72
2023/01/10 03:25:52;;;;;;;26.38;6.15;;;;;;;;;;5004291;28;20046;-72
2023/01/10 03:28:24;;;;;;;21.10;5.65;;;;;;;;;;5002145;28;20073;-72
2023/01/10 03:30:53;;;;;;;20.52;5.05;;;;;;;;;;5001896;28;20048;-72
2023/01/10 03:33:24;;;;;;;23.98;5.60;;;;;;;;;;5002217;28;20061;-72
2023/01/10 03:36:04;;;;;;;16.63;4.45;;;;;;;;;;5010454;28;20077;-72
2023/01/10 03:38:31;;;;;;;16.73;4.60;;;;;;;;;;5008119;28;20050;-72
2023/01/10 03:40:57;;;;;;;16.42;4.30;;;;;;;;;;5008630;28;20120;-72
2023/01/10 03:46:27;;;;;;;15.50;4.88;;;;;;;;;;5005770;28;20085;-72
2023/01/10 03:48:53;;;;;;;13.82;4.03;;;;;;;;;;5005448;28;20041;-72
2023/01/10 03:51:19;;;;;;;14.00;4.65;;;;;;;;;;5011660;28;20046;-72
2023/01/10 03:53:46;;;;;;;21.67;5.47;;;;;;;;;;5007061;28;20042;-72
2023/01/10 03:56:15;;;;;;;21.73;5.65;;;;;;;;;;5001023;28;20049;-72
2023/01/10 03:58:41;;;;;;;19.80;4.47;;;;;;;;;;5007720;28;20073;-72
2023/01/10 04:01:07;;;;;;;18.90;5.20;;;;;;;;;;5002578;28;20038;-72
2023/01/10 04:03:33;;;;;;;20.50;5.50;;;;;;;;;;5004303;28;20054;-72
2023/01/10 04:05:59;;;;;;;19.73;4.88;;;;;;;;;;5010671;28;20042;-72
2023/01/10 04:08:25;;;;;;;24.58;5.10;;;;;;;;;;5009770;28;20054;-72
2023/01/10 04:10:51;;;;;;;23.33;5.75;;;;;;;;;;5005825;28;20049;-72
2023/01/10 04:13:17;;;;;;;21.45;4.55;;;;;;;;;;4997796;28;20073;-72
2023/01/10 04:15:43;;;;;;;23.17;5.20;;;;;;;;;;5007248;28;20053;-72
2023/01/10 04:18:09;;;;;;;21.95;5.07;;;;;;;;;;5007132;28;20371;-72
2023/01/10 04:20:35;;;;;;;21.98;5.22;;;;;;;;;;5006782;28;20070;-72
2023/01/10 04:23:01;;;;;;;20.88;5.38;;;;;;;;;;5009079;28;20068;-72
2023/01/10 04:25:27;;;;;;;22.20;4.85;;;;;;;;;;5005129;28;20477;-72
2023/01/10 04:27:53;;;;;;;23.15;5.35;;;;;;;;;;5005187;28;20049;-72
2023/01/10 04:30:19;;;;;;;23.77;5.35;;;;;;;;;;5004458;28;20155;-72
2023/01/10 04:32:46;;;;;;;26.48;5.35;;;;;;;;;;5008510;28;20042;-72
2023/01/10 04:35:12;;;;;;;22.52;5.60;;;;;;;;;;5006181;28;20085;-72
2023/01/10 04:37:38;;;;;;;28.02;5.72;;;;;;;;;;5008866;28;20133;-72
2023/01/10 04:40:05;;;;;;;14.55;3.90;;;;;;;;;;5009332;28;20042;-72
2023/01/10 04:42:31;;;;;;;12.57;3.58;;;;;;;;;;5006905;28;20471;-72
2023/01/10 04:44:57;;;;;;;14.48;3.90;;;;;;;;;;5004497;28;20037;-72
2023/01/10 04:47:23;;;;;;;20.13;3.78;;;;;;;;;;5000685;28;20050;-72
2023/01/10 04:49:49;;;;;;;23.20;4.55;;;;;;;;;;5009277;28;20104;-72
2023/01/10 04:52:15;;;;;;;17.85;5.07;;;;;;;;;;5010387;28;20046;-72
2023/01/10 04:54:41;;;;;;;22.38;5.90;;;;;;;;;;5005994;28;20050;-72
2023/01/10 04:57:07;;;;;;;21.30;4.60;;;;;;;;;;5010578;28;20089;-72
2023/01/10 04:59:33;;;;;;;16.38;5.25;;;;;;;;;;5006201;28;20043;-72
2023/01/10 05:01:59;;;;;;;22.13;4.97;;;;;;;;;;5012104;28;20038;-72
2023/01/10 05:04:25;;;;;;;21.77;5.13;;;;;;;;;;5001707;28;20054;-72
2023/01/10 05:06:51;;;;;;;16.70;5.53;;;;;;;;;;5007830;28;20050;-72
2023/01/10 05:09:17;;;;;;;21.42;5.05;;;;;;;;;;5005504;28;20192;-72
2023/01/10 05:11:43;;;;;;;25.27;4.70;;;;;;;;;;5004555;28;20049;-72
2023/01/10 05:14:10;;;;;;;20.85;4.65;;;;;;;;;;5003511;28;20054;-72
2023/01/10 05:16:36;;;;;;;17.65;4.70;;;;;;;;;;5007278;28;20046;-72
2023/01/10 05:19:02;;;;;;;18.80;4.93;;;;;;;;;;5010254;28;20041;-72
2023/01/10 05:21:28;;;;;;;17.95;4.00;;;;;;;;;;5006069;28;20050;-72
2023/01/10 05:23:54;;;;;;;17.70;4.90;;;;;;;;;;5001687;28;20065;-72
2023/01/10 05:26:21;;;;;;;20.38;5.40;;;;;;;;;;5006789;28;20486;-72
2023/01/10 05:28:47;;;;;;;17.52;4.13;;;;;;;;;;5008003;28;20041;-72
2023/01/10 05:31:15;;;;;;;18.63;4.53;;;;;;;;;;5004443;28;20064;-72
2023/01/10 05:33:48;;;;;;;23.00;5.00;;;;;;;;;;5006814;28;20050;-72
2023/01/10 05:36:14;;;;;;;22.38;5.03;;;;;;;;;;5004342;28;20399;-72
2023/01/10 05:38:40;;;;;;;17.42;4.75;;;;;;;;;;5002719;28;20050;-72
2023/01/10 05:41:06;;;;;;;23.92;5.35;;;;;;;;;;5004364;28;20041;-72
2023/01/10 05:43:32;;;;;;;23.10;5.53;;;;;;;;;;4999673;28;20089;-72
2023/01/10 05:45:58;;;;;;;20.83;5.47;;;;;;;;;;5004721;28;20042;-72
2023/01/10 05:48:24;;;;;;;25.25;5.63;;;;;;;;;;5004413;28;20049;-72
2023/01/10 05:50:51;;;;;;;20.77;5.63;;;;;;;;;;5003291;28;20049;-72
2023/01/10 05:53:17;;;;;;;23.38;5.30;;;;;;;;;;5004674;28;20049;-72
2023/01/10 05:55:44;;;;;;;25.05;5.82;;;;;;;;;;5002110;28;20467;-72
2023/01/10 05:58:10;;;;;;;20.92;6.18;;;;;;;;;;5004717;28;20120;-72
2023/01/10 06:00:38;;;;;;;22.38;5.20;;;;;;;;;;5002152;28;20035;-72
2023/01/10 06:03:04;;;;;;;24.75;5.70;;;;;;;;;;5004617;28;20061;-72
2023/01/10 06:05:30;;;;;;;24.58;5.88;;;;;;;;;;5003809;28;20050;-72
2023/01/10 06:07:56;;;;;;;21.88;5.47;;;;;;;;;;5008215;28;20422;-72
2023/01/10 06:10:22;;;;;;;25.95;5.65;;;;;;;;;;5005991;28;20516;-72
2023/01/10 06:12:48;;;;;;;22.45;5.93;;;;;;;;;;5010436;28;20490;-72
2023/01/10 06:15:15;;;;;;;43.55;11.48;;;;;;;;;;4998319;28;20049;-72
2023/01/10 06:17:43;;;;;;;28.80;8.95;;;;;;;;;;5004314;28;20437;-72
2023/01/10 06:20:09;;;;;;;21.75;5.82;;;;;;;;;;5006647;28;20569;-72
2023/01/10 06:22:35;;;;;;;23.45;5.68;;;;;;;;;;5004388;28;20065;-73
2023/01/10 06:25:01;;;;;;;27.85;5.75;;;;;;;;;;5005425;28;20481;-72
2023/01/10 06:27:28;;;;;;;20.48;5.40;;;;;;;;;;5009524;28;20050;-72
2023/01/10 06:29:54;;;;;;;34.58;6.05;;;;;;;;;;5008574;28;20378;-72
2023/01/10 06:32:20;;;;;;;18.88;4.95;;;;;;;;;;5000270;28;20041;-72
2023/01/10 06:34:46;;;;;;;18.40;5.63;;;;;;;;;;5007907;28;20041;-72
2023/01/10 06:37:12;;;;;;;22.20;5.43;;;;;;;;;;5010604;28;20054;-72
2023/01/10 06:39:38;;;;;;;21.88;5.65;;;;;;;;;;5011182;28;20390;-72
2023/01/10 06:42:04;;;;;;;19.55;5.22;;;;;;;;;;5003970;28;20047;-72
2023/01/10 06:44:30;;;;;;;25.70;5.78;;;;;;;;;;5011608;28;20140;-72
2023/01/10 06:46:56;;;;;;;16.52;4.75;;;;;;;;;;5008181;28;20041;-72
2023/01/10 06:49:22;;;;;;;23.70;5.50;;;;;;;;;;5001414;28;20563;-72
2023/01/10 06:51:48;;;;;;;21.75;6.20;;;;;;;;;;5010217;28;20066;-72
2023/01/10 06:54:15;;;;;;;23.95;6.07;;;;;;;;;;5010521;28;20038;-72
2023/01/10 06:56:41;;;;;;;22.73;5.10;;;;;;;;;;5006666;28;20058;-73
2023/01/10 06:59:08;;;;;;;20.58;6.10;;;;;;;;;;5011559;28;20042;-72
2023/01/10 07:01:34;;;;;;;22.65;5.57;;;;;;;;;;5008164;28;20101;-72
2023/01/10 07:04:00;;;;;;;24.83;5.50;;;;;;;;;;5012252;28;20041;-72
2023/01/10 07:06:26;;;;;;;25.98;6.00;;;;;;;;;;5005386;28;20118;-72
2023/01/10 07:08:54;;;;;;;15.88;5.25;;;;;;;;;;5009713;28;20073;-72
2023/01/10 07:11:20;;;;;;;19.80;4.97;;;;;;;;;;5009235;28;20084;-72
2023/01/10 07:13:46;;;;;;;16.13;4.72;;;;;;;;;;5009239;28;20552;-72
2023/01/10 07:16:13;;;;;;;17.27;4.60;;;;;;;;;;5005018;28;20046;-72
2023/01/10 07:18:40;;;;;;;18.55;5.60;;;;;;;;;;5002746;28;20054;-72
2023/01/10 07:21:07;;;;;;;26.95;4.93;;;;;;;;;;5004772;28;20050;-72
2023/01/10 07:23:33;;;;;;;34.28;6.32;;;;;;;;;;5003456;28;20050;-73
2023/01/10 07:26:04;;;;;;;23.75;6.65;;;;;;;;;;5007831;28;20100;-72
2023/01/10 07:28:30;;;;;;;19.75;6.05;;;;;;;;;;5006304;28;20382;-72
2023/01/10 07:30:59;;;;;;;24.55;5.68;;;;;;;;;;5007942;28;20503;-72
2023/01/10 07:33:25;;;;;;;22.35;5.38;;;;;;;;;;5005167;28;20058;-72
2023/01/10 07:35:51;;;;;;;19.15;4.88;;;;;;;;;;5005698;28;20050;-72
2023/01/10 07:38:17;;;;;;;21.55;5.70;;;;;;;;;;5002745;28;20046;-72
2023/01/10 07:40:43;;;;;;;22.80;5.10;;;;;;;;;;4997907;28;20037;-72
2023/01/10 07:43:09;;;;;;;17.90;5.10;;;;;;;;;;4994170;28;20050;-72
2023/01/10 07:45:35;;;;;;;12.55;4.47;;;;;;;;;;5006896;28;20142;-72
2023/01/10 07:48:02;;;;;;;24.65;6.70;;;;;;;;;;5011033;28;20488;-72
2023/01/10 07:50:30;;;;;;;18.83;4.63;;;;;;;;;;5014762;28;20564;-73
2023/01/10 07:52:58;;;;;;;19.20;4.65;;;;;;;;;;4999029;28;20050;-73
2023/01/10 07:55:24;;;;;;;21.10;5.57;;;;;;;;;;5013061;28;20501;-72
2023/01/10 07:57:51;;;;;;;21.50;4.95;;;;;;;;;;5012146;28;20140;-73
2023/01/10 08:00:17;;;;;;;13.95;4.20;;;;;;;;;;4998013;28;20120;-72
2023/01/10 08:02:43;;;;;;;11.23;3.67;;;;;;;;;;4991533;28;20126;-72
2023/01/10 08:05:09;;;;;;;14.25;3.53;;;;;;;;;;5002112;28;20499;-72
2023/01/10 08:07:35;;;;;;;18.10;4.00;;;;;;;;;;5008161;28;20074;-72
2023/01/10 08:10:01;;;;;;;20.13;4.85;;;;;;;;;;5009038;28;20133;-72
2023/01/10 08:12:27;;;;;;;14.25;4.72;;;;;;;;;;5005851;28;20104;-73
2023/01/10 08:14:53;;;;;;;20.20;4.82;;;;;;;;;;5009077;28;20042;-73
2023/01/10 08:17:19;;;;;;;17.00;5.20;;;;;;;;;;5010694;28;20054;-72
2023/01/10 08:19:45;;;;;;;18.10;5.15;;;;;;;;;;5009555;28;20054;-72
2023/01/10 08:22:12;;;;;;;19.48;4.90;;;;;;;;;;5008378;28;20045;-72
2023/01/10 08:24:38;;;;;;;19.63;4.70;;;;;;;;;;5017222;28;20064;-73
2023/01/10 08:27:04;;;;;;;17.85;4.75;;;;;;;;;;5008326;28;20034;-72
2023/01/10 08:29:30;;;;;;;18.40;4.70;;;;;;;;;;5017157;28;20382;-73
2023/01/10 08:31:57;;;;;;;18.08;4.45;;;;;;;;;;5031024;28;20061;-73
2023/01/10 08:34:23;;;;;;;11.30;4.00;;;;;;;;;;5002340;28;20054;-73
2023/01/10 08:36:50;;;;;;;16.60;5.00;;;;;;;;;;4996378;28;20057;-73
2023/01/10 08:39:16;;;;;;;21.10;4.85;;;;;;;;;;5011142;28;20057;-73
2023/01/10 08:41:42;;;;;;;17.58;4.85;;;;;;;;;;4997731;28;20038;-73
2023/01/10 08:44:11;;;;;;;15.48;4.43;;;;;;;;;;4998766;28;20438;-73
2023/01/10 08:46:37;;;;;;;16.73;4.65;;;;;;;;;;5004768;28;20168;-73
2023/01/10 08:49:03;;;;;;;18.23;5.28;;;;;;;;;;5008865;28;20473;-73
2023/01/10 08:51:29;;;;;;;21.92;5.05;;;;;;;;;;4992900;28;20046;-73
2023/01/10 08:53:55;;;;;;;20.63;4.82;;;;;;;;;;4996528;28;20170;-73
2023/01/10 08:56:21;;;;;;;21.20;4.50;;;;;;;;;;4995366;28;20065;-73
2023/01/10 08:58:47;;;;;;;15.70;4.80;;;;;;;;;;5004915;28;20050;-73
2023/01/10 09:01:13;;;;;;;12.68;4.05;;;;;;;;;;5004103;28;20067;-73
2023/01/10 09:03:40;;;;;;;14.25;3.95;;;;;;;;;;5007549;28;20045;-73
2023/01/10 09:06:07;;;;;;;18.27;5.20;;;;;;;;;;5004085;28;20408;-73
2023/01/10 09:08:33;;;;;;;13.85;4.03;;;;;;;;;;5002020;28;20050;-73
2023/01/10 09:10:59;;;;;;;14.77;4.45;;;;;;;;;;4999603;28;20042;-73
2023/01/10 09:13:26;;;;;;;16.25;4.28;;;;;;;;;;5001423;28;20127;-73
2023/01/10 09:15:52;;;;;;;20.60;5.20;;;;;;;;;;4996112;28;20133;-73
2023/01/10 09:18:18;;;;;;;23.50;5.10;;;;;;;;;;5000559;28;20125;-73
2023/01/10 09:20:45;;;;;;;12.20;4.07;;;;;;;;;;5003410;28;20046;-73
2023/01/10 09:23:18;;;;;;;18.58;4.38;;;;;;;;;;5004241;28;20060;-73
2023/01/10 09:25:44;;;;;;;;;;;;;;;;;;5007961;28;20062;-73
2023/01/10 09:28:11;;;;;;;21.05;4.90;;;;;;;;;;4999961;28;19926;-73
2023/01/10 09:30:37;;;;;;;11.68;4.18;;;;;;;;;;5004636;28;20068;-73
2023/01/10 09:33:03;;;;;;;13.60;4.63;;;;;;;;;;4996684;28;20045;-73
2023/01/10 09:35:30;;;;;;;15.52;4.15;;;;;;;;;;5009286;28;20054;-73
2023/01/10 09:37:57;;;;;;;13.40;4.40;;;;;;;;;;5008506;28;20045;-73
2023/01/10 09:40:43;;;;;;;15.50;4.15;;;;;;;;;;4997958;28;20389;-73
2023/01/10 09:43:28;;;;;;;16.95;5.47;;;;;;;;;;5006775;28;20136;-73
2023/01/10 09:46:06;;;;;;;18.50;4.80;;;;;;;;;;4998812;28;20051;-73
2023/01/10 09:48:37;;;;;;;16.00;4.80;;;;;;;;;;5001926;28;20121;-73
2023/01/10 09:51:35;;;;;;;13.95;4.55;;;;;;;;;;4997647;28;20038;-73
2023/01/10 09:54:04;;;;;;;19.75;4.68;;;;;;;;;;5009040;28;20136;-73
2023/01/10 09:56:31;;;;;;;17.58;5.20;;;;;;;;;;4993881;28;20485;-73
2023/01/10 09:58:57;;;;;;;14.63;4.70;;;;;;;;;;4997076;28;20049;-73
2023/01/10 10:01:28;;;;;;;14.88;4.72;;;;;;;;;;4995494;28;20046;-73
2023/01/10 10:03:58;;;;;;;18.08;4.50;;;;;;;;;;5000774;28;20397;-73
2023/01/10 10:06:24;;;;;;;18.17;4.55;;;;;;;;;;5006166;28;20045;-73
2023/01/10 10:08:51;;;;;;;16.63;4.72;;;;;;;;;;5000825;28;20049;-73
2023/01/10 10:11:27;;;;;;;26.10;5.25;;;;;;;;;;5004694;28;20424;-73
2023/01/10 10:14:11;;;;;;;18.85;5.28;;;;;;;;;;4996942;28;20073;-73
2023/01/10 10:16:37;;;;;;;18.75;4.72;;;;;;;;;;4997735;28;20088;-73
2023/01/10 10:19:03;;;;;;;17.90;5.05;;;;;;;;;;5000521;28;20117;-73
2023/01/10 10:21:44;;;;;;;20.73;4.75;;;;;;;;;;4995341;28;20401;-73
2023/01/10 10:24:16;;;;;;;14.40;4.53;;;;;;;;;;4995399;28;20131;-73
2023/01/10 10:26:51;;;;;;;15.30;5.05;;;;;;;;;;5009605;28;20045;-73
2023/01/10 10:29:36;;;;;;;18.02;4.80;;;;;;;;;;5010525;28;20069;-73
2023/01/10 10:32:20;;;;;;;20.30;5.28;;;;;;;;;;5002612;28;20436;-73
2023/01/10 10:34:59;;;;;;;16.02;4.40;;;;;;;;;;4995866;28;20104;-72
2023/01/10 10:37:35;;;;;;;19.80;5.13;;;;;;;;;;4997480;28;20382;-73
2023/01/10 10:40:03;;;;;;;18.58;5.10;;;;;;;;;;5009618;28;20058;-73
2023/01/10 10:42:32;;;;;;;20.92;4.97;;;;;;;;;;5010491;28;20493;-73
2023/01/10 10:45:01;;;;;;;17.13;4.95;;;;;;;;;;5008690;28;20393;-72
2023/01/10 10:47:30;;;;;;;16.90;4.72;;;;;;;;;;5008316;28;20125;-73
2023/01/10 10:49:59;;;;;;;20.55;5.35;;;;;;;;;;4993240;28;20037;-73
2023/01/10 10:52:26;;;;;;;18.70;4.50;;;;;;;;;;5009055;28;20486;-73
2023/01/10 10:54:53;;;;;;;22.10;5.35;;;;;;;;;;5002226;28;20042;-73
2023/01/10 10:57:21;;;;;;;20.92;4.93;;;;;;;;;;4994845;28;20050;-73
2023/01/10 10:59:48;;;;;;;16.92;4.65;;;;;;;;;;5003475;28;20046;-73
2023/01/10 11:02:22;;;;;;;20.90;5.13;;;;;;;;;;4998346;28;20130;-72
2023/01/10 11:04:49;;;;;;;24.65;5.15;;;;;;;;;;4994710;28;20090;-73
2023/01/10 11:07:17;;;;;;;22.70;5.00;;;;;;;;;;5007886;28;20046;-73
2023/01/10 11:12:32;;;;;;;22.15;5.72;;;;;;;;;;4985803;28;20509;-73
2023/01/10 11:14:58;;;;;;;24.42;5.90;;;;;;;;;;5006106;28;20046;-73
2023/01/10 11:17:26;;;;;;;20.77;5.40;;;;;;;;;;5000536;28;20123;-73
2023/01/10 11:20:01;;;;;;;17.00;5.55;;;;;;;;;;5003064;28;20038;-73
2023/01/10 11:22:29;;;;;;;24.60;5.35;;;;;;;;;;4999687;28;20053;-73
2023/01/10 11:24:59;;;;;;;16.90;6.05;;;;;;;;;;5011998;28;20546;-73
2023/01/10 11:27:30;;;;;;;20.20;5.45;;;;;;;;;;5011096;28;20496;-73
2023/01/10 11:30:03;;;;;;;16.55;5.78;;;;;;;;;;5011458;28;20049;-73
2023/01/10 11:32:34;;;;;;;19.92;5.45;;;;;;;;;;5008266;28;20171;-73
2023/01/10 11:35:23;;;;;;;21.50;5.70;;;;;;;;;;5012960;28;20452;-72
2023/01/10 11:38:20;;;;;;;24.52;5.70;;;;;;;;;;5009650;28;20061;-73
2023/01/10 11:40:52;;;;;;;19.55;5.25;;;;;;;;;;4995670;28;20077;-73
2023/01/10 11:43:32;;;;;;;22.38;5.90;;;;;;;;;;5009554;28;20776;-72
2023/01/10 11:46:01;;;;;;;18.60;5.60;;;;;;;;;;5020194;28;20051;-73
2023/01/10 11:48:32;;;;;;;20.98;5.55;;;;;;;;;;4997305;28;20041;-73
2023/01/10 11:50:58;;;;;;;23.60;6.18;;;;;;;;;;4999933;28;20569;-73
2023/01/10 11:53:33;;;;;;;23.05;6.40;;;;;;;;;;4995034;28;20539;-73
2023/01/10 11:56:00;;;;;;;22.33;6.68;;;;;;;;;;5004518;28;20086;-73
2023/01/10 11:58:30;;;;;;;22.27;7.45;;;;;;;;;;5005836;28;20176;-73
2023/01/10 12:00:56;;;;;;;23.50;7.10;;;;;;;;;;5000796;28;20037;-73
2023/01/10 12:03:37;;;;;;;22.58;7.53;;;;;;;;;;4999398;28;20513;-73
2023/01/10 12:06:08;;;;;;;20.95;8.20;;;;;;;;;;5006468;28;20052;-72
2023/01/10 12:08:43;;;;;;;28.98;7.10;;;;;;;;;;5009895;28;20366;-73
2023/01/10 12:11:26;;;;;;;22.30;7.32;;;;;;;;;;5000402;28;20329;-73
2023/01/10 12:13:53;;;;;;;22.67;8.15;;;;;;;;;;4997490;28;20042;-72
2023/01/10 12:16:21;;;;;;;24.10;7.65;;;;;;;;;;4998058;28;20053;-73
2023/01/10 12:18:47;;;;;;;17.95;6.70;;;;;;;;;;5006135;28;20045;-73
2023/01/10 12:21:15;;;;;;;21.90;7.00;;;;;;;;;;4996488;28;20493;-73
2023/01/10 12:23:43;;;;;;;17.63;6.90;;;;;;;;;;5005980;28;20045;-73
2023/01/10 12:26:12;;;;;;;20.95;7.97;;;;;;;;;;5006976;28;20050;-73
2023/01/10 12:28:39;;;;;;;17.27;6.97;;;;;;;;;;4993547;28;20081;-73
2023/01/10 12:31:06;;;;;;;29.10;7.80;;;;;;;;;;5001788;28;20045;-73
2023/01/10 12:33:35;;;;;;;27.17;7.72;;;;;;;;;;5001457;28;20366;-73
2023/01/10 12:36:09;;;;;;;19.95;6.78;;;;;;;;;;4998141;28;20050;-73
2023/01/10 12:44:22;;;;;;;19.23;6.95;;;;;;;;;;5007090;28;20049;-72
2023/01/10 12:46:52;;;;;;;16.67;6.75;;;;;;;;;;5002359;28;20050;-72
2023/01/10 12:49:26;;;;;;;21.80;6.80;;;;;;;;;;5001190;28;20048;-72
2023/01/10 12:51:53;;;;;;;21.17;6.55;;;;;;;;;;4995560;28;20049;-72
2023/01/10 12:54:22;;;;;;;21.80;7.05;;;;;;;;;;4991966;28;20056;-72
2023/01/10 12:56:49;;;;;;;22.27;7.10;;;;;;;;;;4997416;28;20037;-72
2023/01/10 12:59:20;;;;;;;21.13;6.43;;;;;;;;;;5001459;28;20129;-72
2023/01/10 13:01:51;;;;;;;29.20;7.82;;;;;;;;;;4996333;28;20056;-72
2023/01/10 13:04:21;;;;;;;22.75;6.43;;;;;;;;;;5003313;28;20054;-72
2023/01/10 13:06:47;;;;;;;18.00;6.28;;;;;;;;;;4999724;28;20485;-72
2023/01/10 13:09:19;;;;;;;22.33;6.40;;;;;;;;;;4995984;28;20054;-72
2023/01/10 13:11:59;;;;;;;21.08;6.28;;;;;;;;;;4996240;28;20049;-72
2023/01/10 13:14:27;;;;;;;22.77;5.70;;;;;;;;;;4998680;28;20072;-72
2023/01/10 13:17:10;;;;;;;16.27;5.88;;;;;;;;;;4996264;28;20064;-72
2023/01/10 13:19:36;;;;;;;20.65;5.80;;;;;;;;;;5031352;28;20085;-72
2023/01/10 13:22:17;;;;;;;21.67;6.03;;;;;;;;;;4999699;28;20128;-72
2023/01/10 13:24:53;;;;;;;27.63;7.00;;;;;;;;;;4999947;28;20057;-72
2023/01/10 13:27:20;;;;;;;20.00;5.45;;;;;;;;;;4996590;28;20057;-72
2023/01/10 13:29:47;;;;;;;27.23;6.13;;;;;;;;;;5001624;28;20061;-72
2023/01/10 13:32:24;;;;;;;17.38;4.90;;;;;;;;;;4996062;28;20038;-72
2023/01/10 13:34:51;;;;;;;20.42;5.25;;;;;;;;;;4996220;28;20377;-72
2023/01/10 13:37:43;;;;;;;20.88;5.47;;;;;;;;;;5002618;28;20054;-72
2023/01/10 13:40:19;;;;;;;19.58;5.13;;;;;;;;;;5003977;28;20073;-72
2023/01/10 13:45:30;;;;;;;17.63;5.03;;;;;;;;;;4994308;28;20390;-72
2023/01/10 13:47:58;;;;;;;15.95;5.35;;;;;;;;;;5001017;28;20397;-72
2023/01/10 13:50:35;;;;;;;16.42;5.50;;;;;;;;;;4993185;28;20137;-72
2023/01/10 13:53:01;;;;;;;17.50;4.80;;;;;;;;;;4998545;28;20197;-73
2023/01/10 13:55:33;;;;;;;21.77;5.25;;;;;;;;;;5001605;28;20099;-73
2023/01/10 13:58:00;;;;;;;14.85;4.95;;;;;;;;;;4998584;28;20084;-72
2023/01/10 14:03:38;;;;;;;19.15;5.80;;;;;;;;;;4996046;28;20046;-72
2023/01/10 14:06:09;;;;;;;18.83;4.88;;;;;;;;;;5010079;28;20707;-72
2023/01/10 14:08:35;;;;;;;15.40;4.57;;;;;;;;;;4997402;28;20425;-72
2023/01/10 14:11:08;;;;;;;20.75;4.80;;;;;;;;;;4999806;28;20042;-72
2023/01/10 14:13:34;;;;;;;15.75;4.10;;;;;;;;;;4997328;28;20073;-72
2023/01/10 14:16:00;;;;;;;16.67;4.45;;;;;;;;;;4998620;28;20501;-72
2023/01/10 14:18:34;;;;;;;18.45;4.70;;;;;;;;;;5004449;28;20093;-72
2023/01/10 14:21:07;;;;;;;18.33;4.50;;;;;;;;;;5000149;28;20098;-72
2023/01/10 14:23:39;;;;;;;14.05;4.03;;;;;;;;;;4998271;28;20481;-72
2023/01/10 14:26:08;;;;;;;16.98;5.18;;;;;;;;;;4997417;28;20411;-72
2023/01/10 14:28:35;;;;;;;18.55;4.90;;;;;;;;;;5008984;28;20060;-72
2023/01/10 14:31:09;;;;;;;17.83;4.43;;;;;;;;;;4992433;28;20034;-72
2023/01/10 14:33:36;;;;;;;16.70;4.68;;;;;;;;;;4997926;28;20038;-72
2023/01/10 14:36:04;;;;;;;15.75;4.00;;;;;;;;;;4999012;28;20069;-72
2023/01/10 14:38:34;;;;;;;15.80;3.63;;;;;;;;;;5009718;28;20038;-72
2023/01/10 14:41:06;;;;;;;18.98;5.00;;;;;;;;;;5011112;28;20452;-72
2023/01/10 14:43:41;;;;;;;20.75;4.40;;;;;;;;;;5007900;28;20096;-72
2023/01/10 14:46:19;;;;;;;14.73;4.85;;;;;;;;;;5000647;28;20575;-72
2023/01/10 14:48:47;;;;;;;19.33;4.70;;;;;;;;;;5006144;28;20104;-72
2023/01/10 14:51:26;;;;;;;19.05;5.13;;;;;;;;;;5001380;28;20046;-71
2023/01/10 14:53:56;;;;;;;15.63;4.40;;;;;;;;;;4996134;28;20046;-72
2023/01/10 14:56:42;;;;;;;15.07;3.88;;;;;;;;;;4998060;28;20065;-72
2023/01/10 14:59:17;;;;;;;23.67;4.55;;;;;;;;;;4999676;28;20485;-72
2023/01/10 15:01:43;;;;;;;14.93;4.68;;;;;;;;;;5003981;28;20042;-72